Time;durP1;ratioP1;P1;durP2;ratioP2;P2;SDS_P1;SDS_P2;PMS_P1;PMS_P2;Temp;Humidity;BMP_temperature;BMP_pressure;BME280_temperature;BME280_humidity;BME280_pressure;Samples;Min_cycle;Max_cycle;Signal;HPM_P1;HPM_P2
2021/05/08 00:02:15;;;;;;;5.55;3.72;;;1.50;99.90;;;;;;5112195;28;20034;-42
2021/05/08 00:04:41;;;;;;;6.28;3.35;;;1.50;99.90;;;;;;5112126;28;20027;-41
2021/05/08 00:07:07;;;;;;;4.05;3.17;;;1.40;99.90;;;;;;5112212;28;20027;-41
2021/05/08 00:09:32;;;;;;;5.32;3.00;;;1.40;99.90;;;;;;5111145;28;20032;-43
2021/05/08 00:11:58;;;;;;;7.68;3.70;;;1.30;99.90;;;;;;5111892;28;20055;-42
2021/05/08 00:14:25;;;;;;;7.60;3.40;;;1.30;99.90;;;;;;5111676;28;20023;-41
2021/05/08 00:16:51;;;;;;;5.10;3.30;;;1.20;99.90;;;;;;5111891;28;20051;-43
2021/05/08 00:19:17;;;;;;;6.32;3.72;;;1.20;99.90;;;;;;5111690;28;20035;-42
2021/05/08 00:21:43;;;;;;;6.60;3.30;;;1.10;99.90;;;;;;5112161;28;20070;-41
2021/05/08 00:24:08;;;;;;;4.32;2.90;;;1.10;99.90;;;;;;5111629;28;20390;-41
2021/05/08 00:26:34;;;;;;;5.60;3.30;;;1.10;99.90;;;;;;5110954;28;20055;-45
2021/05/08 00:28:59;;;;;;;6.18;3.15;;;1.10;99.90;;;;;;5111394;28;20385;-44
2021/05/08 00:31:25;;;;;;;5.80;3.88;;;1.00;99.90;;;;;;5111819;28;20023;-42
2021/05/08 00:33:50;;;;;;;4.88;3.17;;;1.00;99.90;;;;;;5092431;28;20065;-42
2021/05/08 00:36:16;;;;;;;5.70;3.63;;;0.90;99.90;;;;;;5091300;28;20032;-42
2021/05/08 00:38:41;;;;;;;4.80;3.30;;;0.90;99.90;;;;;;5091335;28;20016;-41
2021/05/08 00:41:07;;;;;;;7.13;3.25;;;0.90;99.90;;;;;;5090331;28;20020;-42
2021/05/08 00:43:33;;;;;;;5.43;3.03;;;0.90;99.90;;;;;;5091027;28;20093;-45
2021/05/08 00:45:58;;;;;;;6.07;3.53;;;0.80;99.90;;;;;;5091080;28;20099;-41
2021/05/08 00:48:26;;;;;;;5.13;3.35;;;0.80;99.90;;;;;;5091207;28;20051;-41
2021/05/08 00:50:52;;;;;;;4.63;3.60;;;0.80;99.90;;;;;;5091054;28;20073;-41
2021/05/08 00:53:18;;;;;;;4.50;3.17;;;0.70;99.90;;;;;;5109570;28;20031;-43
2021/05/08 00:55:44;;;;;;;6.93;3.20;;;0.70;99.90;;;;;;5110069;28;20056;-41
2021/05/08 00:58:10;;;;;;;4.70;3.40;;;0.60;99.90;;;;;;5111219;28;20110;-42
2021/05/08 01:00:37;;;;;;;5.93;3.33;;;0.60;99.90;;;;;;5111076;28;20548;-42
2021/05/08 01:03:03;;;;;;;6.13;3.60;;;0.60;99.90;;;;;;5111218;28;20509;-43
2021/05/08 01:05:32;;;;;;;6.03;4.03;;;0.60;99.90;;;;;;5111270;28;20020;-42
2021/05/08 01:07:59;;;;;;;6.10;4.13;;;0.60;99.90;;;;;;5110988;28;20161;-41
2021/05/08 01:10:25;;;;;;;6.55;4.38;;;0.60;99.90;;;;;;5097737;28;20036;-43
2021/05/08 01:12:51;;;;;;;6.88;4.15;;;0.60;99.90;;;;;;5090734;28;20046;-41
2021/05/08 01:15:16;;;;;;;6.25;3.70;;;0.60;99.90;;;;;;5090595;28;20523;-41
2021/05/08 01:17:42;;;;;;;8.82;3.78;;;0.60;99.90;;;;;;5090624;28;20127;-41
2021/05/08 01:20:10;;;;;;;5.35;3.55;;;0.50;99.90;;;;;;5090750;28;20018;-42
2021/05/08 01:22:36;;;;;;;6.57;4.05;;;0.50;99.90;;;;;;5089401;28;20027;-41
2021/05/08 01:25:05;;;;;;;6.85;3.92;;;0.40;99.90;;;;;;5089803;28;20036;-41
2021/05/08 01:27:30;;;;;;;4.80;3.15;;;0.40;99.90;;;;;;5090666;28;20056;-42
2021/05/08 01:29:56;;;;;;;7.78;4.20;;;0.40;99.90;;;;;;5090565;28;20058;-43
2021/05/08 01:32:22;;;;;;;6.55;4.10;;;0.40;99.90;;;;;;5090431;28;20111;-41
2021/05/08 01:34:47;;;;;;;6.47;3.67;;;0.40;99.90;;;;;;5089467;28;20463;-41
2021/05/08 01:37:13;;;;;;;4.35;3.25;;;0.30;99.90;;;;;;5090675;28;20043;-42
2021/05/08 01:39:38;;;;;;;4.68;3.40;;;0.30;99.90;;;;;;5089673;28;20096;-42
2021/05/08 01:42:04;;;;;;;6.40;3.80;;;0.20;99.90;;;;;;5090480;28;20032;-40
2021/05/08 01:44:30;;;;;;;6.95;3.60;;;0.30;99.90;;;;;;5090623;28;20032;-42
2021/05/08 01:46:55;;;;;;;5.10;4.00;;;0.30;99.90;;;;;;5090345;28;20555;-41
2021/05/08 01:49:21;;;;;;;8.40;3.95;;;0.20;99.90;;;;;;5090610;28;20066;-41
2021/05/08 01:51:46;;;;;;;6.40;3.63;;;0.20;99.90;;;;;;5096163;28;20483;-41
2021/05/08 01:54:16;;;;;;;7.22;4.13;;;0.10;99.90;;;;;;5110036;28;20032;-41
2021/05/08 01:56:43;;;;;;;8.57;4.22;;;0.10;99.90;;;;;;5098018;28;20025;-41
2021/05/08 01:59:09;;;;;;;7.25;4.30;;;0.10;99.90;;;;;;5091988;28;20023;-41
2021/05/08 02:01:35;;;;;;;6.35;4.20;;;0.10;99.90;;;;;;5092154;28;20016;-42
2021/05/08 02:04:01;;;;;;;7.18;4.18;;;0.10;99.90;;;;;;5092226;28;20454;-41
2021/05/08 02:06:26;;;;;;;8.15;4.25;;;0.00;99.90;;;;;;5092033;28;20136;-41
2021/05/08 02:08:52;;;;;;;8.02;3.95;;;0.00;99.90;;;;;;5094517;28;20028;-40
2021/05/08 02:11:17;;;;;;;8.02;4.03;;;-0.10;99.90;;;;;;5094777;28;20032;-40
2021/05/08 02:13:43;;;;;;;6.07;3.90;;;-0.10;99.90;;;;;;5095896;28;20028;-41
2021/05/08 02:16:08;;;;;;;6.07;3.92;;;-0.20;99.90;;;;;;5095484;28;20044;-41
2021/05/08 02:18:34;;;;;;;7.97;3.90;;;-0.20;99.90;;;;;;5095796;28;20513;-42
2021/05/08 02:20:59;;;;;;;6.43;4.38;;;-0.20;99.90;;;;;;5095606;28;20024;-41
2021/05/08 02:23:25;;;;;;;6.47;3.60;;;-0.20;99.90;;;;;;5095657;28;20020;-41
2021/05/08 02:25:50;;;;;;;5.10;3.40;;;-0.30;99.90;;;;;;5093225;28;20035;-42
2021/05/08 02:28:16;;;;;;;5.88;3.80;;;-0.30;99.90;;;;;;5095531;28;20030;-42
2021/05/08 02:30:42;;;;;;;5.65;4.00;;;-0.30;99.90;;;;;;5095484;28;20045;-41
2021/05/08 02:33:09;;;;;;;7.60;4.65;;;-0.30;99.90;;;;;;5080659;28;20025;-41
2021/05/08 02:35:36;;;;;;;8.65;4.35;;;-0.30;99.90;;;;;;5075107;28;20027;-41
2021/05/08 02:38:03;;;;;;;7.90;3.97;;;-0.30;99.90;;;;;;5073914;28;20107;-41
2021/05/08 02:40:30;;;;;;;9.10;4.22;;;-0.30;99.90;;;;;;5072593;28;20110;-41
2021/05/08 02:42:56;;;;;;;7.20;4.05;;;-0.40;99.90;;;;;;5075133;28;20392;-42
2021/05/08 02:45:22;;;;;;;6.85;4.13;;;-0.30;99.90;;;;;;5074909;28;20035;-43
2021/05/08 02:47:49;;;;;;;9.52;4.65;;;-0.30;99.90;;;;;;5074923;28;20028;-41
2021/05/08 02:50:17;;;;;;;8.18;4.30;;;-0.30;99.90;;;;;;5074778;28;20111;-41
2021/05/08 02:52:43;;;;;;;8.10;4.45;;;-0.30;99.90;;;;;;5093825;28;20039;-41
2021/05/08 02:55:10;;;;;;;8.00;4.10;;;-0.30;99.90;;;;;;5093789;28;20027;-41
2021/05/08 02:57:36;;;;;;;8.35;4.60;;;-0.30;99.90;;;;;;5095031;28;20035;-41
2021/05/08 03:00:10;;;;;;;7.32;4.93;;;-0.30;99.90;;;;;;5094950;28;20103;-44
2021/05/08 03:02:36;;;;;;;8.93;4.53;;;-0.30;99.90;;;;;;5095005;28;20533;-41
2021/05/08 03:05:02;;;;;;;7.47;4.95;;;-0.30;99.90;;;;;;5094745;28;20059;-41
2021/05/08 03:07:27;;;;;;;7.20;4.53;;;-0.30;99.90;;;;;;5094641;28;20020;-40
2021/05/08 03:09:53;;;;;;;7.07;4.20;;;-0.20;99.90;;;;;;5093854;28;20107;-41
2021/05/08 03:12:19;;;;;;;11.48;5.05;;;-0.20;99.90;;;;;;5094624;28;20442;-41
2021/05/08 03:14:44;;;;;;;9.00;4.85;;;-0.20;99.90;;;;;;5094668;28;20032;-41
2021/05/08 03:17:10;;;;;;;7.32;4.45;;;-0.20;99.90;;;;;;5094549;28;20048;-41
2021/05/08 03:19:36;;;;;;;10.38;4.97;;;-0.20;99.90;;;;;;5093927;28;20024;-41
2021/05/08 03:22:03;;;;;;;7.00;4.63;;;-0.20;99.90;;;;;;5094525;28;20077;-44
2021/05/08 03:24:29;;;;;;;7.53;4.95;;;-0.10;99.90;;;;;;5093679;28;20039;-41
2021/05/08 03:26:54;;;;;;;5.90;4.32;;;-0.20;99.90;;;;;;5093146;28;20032;-41
2021/05/08 03:29:20;;;;;;;13.80;5.22;;;-0.10;99.90;;;;;;5093177;28;20032;-41
2021/05/08 03:31:45;;;;;;;6.63;4.35;;;-0.10;99.90;;;;;;5092461;28;20056;-43
2021/05/08 03:34:11;;;;;;;9.50;4.80;;;-0.10;99.90;;;;;;5073957;28;20426;-42
2021/05/08 03:36:36;;;;;;;6.80;4.60;;;-0.10;99.90;;;;;;5073787;28;20464;-42
2021/05/08 03:39:03;;;;;;;8.43;4.43;;;0.00;99.90;;;;;;5074080;28;20028;-41
2021/05/08 03:41:28;;;;;;;8.38;4.90;;;0.00;99.90;;;;;;5072766;28;20012;-43
2021/05/08 03:43:53;;;;;;;9.38;4.68;;;0.10;99.90;;;;;;5073922;28;20028;-41
2021/05/08 03:46:19;;;;;;;8.32;5.35;;;0.10;99.90;;;;;;5072464;28;20029;-41
2021/05/08 03:48:44;;;;;;;7.60;4.63;;;0.20;99.90;;;;;;5073860;28;20504;-41
2021/05/08 03:51:10;;;;;;;8.55;5.20;;;0.20;99.90;;;;;;5079594;28;20099;-41
2021/05/08 03:53:36;;;;;;;9.60;5.00;;;0.30;99.90;;;;;;5093847;28;20036;-41
2021/05/08 03:56:02;;;;;;;7.13;4.07;;;0.30;99.90;;;;;;5092833;28;20047;-41
2021/05/08 03:58:28;;;;;;;11.40;4.78;;;0.40;99.90;;;;;;5093843;28;20511;-41
2021/05/08 04:00:55;;;;;;;7.25;4.43;;;0.50;99.90;;;;;;5093743;28;20409;-41
2021/05/08 04:03:20;;;;;;;7.90;5.38;;;0.60;99.90;;;;;;5093686;28;20020;-41
2021/05/08 04:05:46;;;;;;;8.63;4.63;;;0.60;99.90;;;;;;5093547;28;20024;-43
2021/05/08 04:08:12;;;;;;;9.32;4.28;;;0.80;99.90;;;;;;5093586;28;20046;-41
2021/05/08 04:10:38;;;;;;;11.10;5.75;;;1.40;99.90;;;;;;5092578;28;20502;-44
2021/05/08 04:13:03;;;;;;;6.57;3.75;;;2.30;99.90;;;;;;5093548;28;20024;-44
2021/05/08 04:15:29;;;;;;;6.93;4.72;;;3.50;99.90;;;;;;5093223;28;20024;-44
2021/05/08 04:17:54;;;;;;;6.75;3.63;;;4.50;99.90;;;;;;5093382;28;20032;-44
2021/05/08 04:20:23;;;;;;;6.68;3.92;;;5.50;99.90;;;;;;5093040;28;20103;-46
2021/05/08 04:22:48;;;;;;;4.78;3.30;;;6.20;99.90;;;;;;5093408;28;20059;-42
2021/05/08 04:25:14;;;;;;;4.05;3.17;;;6.80;99.90;;;;;;5092393;28;20093;-46
2021/05/08 04:27:40;;;;;;;4.13;2.90;;;7.70;99.90;;;;;;5093260;28;20432;-46
2021/05/08 04:30:07;;;;;;;2.45;2.25;;;8.40;99.90;;;;;;5092681;28;20032;-43
2021/05/08 04:32:32;;;;;;;3.83;2.33;;;9.00;99.90;;;;;;5083388;28;20060;-43
2021/05/08 04:34:58;;;;;;;2.95;2.65;;;9.70;99.90;;;;;;5072875;28;20048;-42
2021/05/08 04:37:23;;;;;;;2.97;2.30;;;10.30;99.90;;;;;;5072660;28;20468;-44
2021/05/08 04:39:49;;;;;;;2.60;2.00;;;11.00;99.90;;;;;;5071987;28;20021;-42
2021/05/08 04:42:14;;;;;;;3.67;2.22;;;11.60;99.90;;;;;;5071472;28;20379;-45
2021/05/08 04:44:40;;;;;;;3.55;2.13;;;12.20;99.90;;;;;;5072756;28;20028;-46
2021/05/08 04:47:05;;;;;;;2.38;2.10;;;12.80;97.20;;;;;;5072780;28;20062;-45
2021/05/08 04:49:31;;;;;;;1.80;1.48;;;13.40;95.30;;;;;;5072650;28;20103;-45
2021/05/08 04:51:57;;;;;;;2.13;1.80;;;14.00;94.10;;;;;;5085067;28;20024;-46
2021/05/08 04:54:22;;;;;;;2.50;1.90;;;14.50;91.50;;;;;;5091839;28;20074;-46
2021/05/08 04:56:48;;;;;;;2.25;1.88;;;15.00;90.50;;;;;;5092849;28;20020;-44
2021/05/08 04:59:14;;;;;;;3.45;2.20;;;15.60;88.40;;;;;;5092897;28;20032;-42
2021/05/08 05:01:40;;;;;;;3.08;1.85;;;16.10;85.80;;;;;;5092628;28;20361;-43
2021/05/08 05:04:05;;;;;;;2.20;1.60;;;16.70;83.60;;;;;;5092828;28;20027;-44
2021/05/08 05:06:31;;;;;;;2.33;1.30;;;17.20;81.90;;;;;;5092359;28;20475;-45
2021/05/08 05:08:56;;;;;;;3.42;1.60;;;17.70;79.40;;;;;;5092732;28;20103;-44
2021/05/08 05:11:22;;;;;;;2.00;1.80;;;18.30;76.90;;;;;;5091579;28;20028;-43
2021/05/08 05:13:48;;;;;;;3.25;2.10;;;18.70;75.70;;;;;;5092593;28;20036;-43
2021/05/08 05:16:15;;;;;;;1.95;1.65;;;19.20;74.30;;;;;;5092421;28;20044;-47
2021/05/08 05:18:40;;;;;;;2.80;1.80;;;19.60;72.00;;;;;;5091322;28;20024;-44
2021/05/08 05:21:06;;;;;;;2.08;1.38;;;20.00;71.00;;;;;;5092265;28;20065;-43
2021/05/08 05:23:31;;;;;;;4.82;1.50;;;20.40;69.90;;;;;;5092503;28;20515;-44
2021/05/08 05:25:57;;;;;;;1.88;1.23;;;20.80;68.30;;;;;;5091698;28;20467;-43
2021/05/08 05:28:28;;;;;;;1.70;1.38;;;21.20;67.20;;;;;;5092498;28;20035;-44
2021/05/08 05:30:55;;;;;;;1.55;1.40;;;21.50;65.60;;;;;;5092414;28;20048;-42
2021/05/08 05:33:20;;;;;;;3.97;1.88;;;21.80;65.10;;;;;;5077552;28;20515;-41
2021/05/08 05:35:47;;;;;;;2.90;1.65;;;22.10;64.00;;;;;;5072112;28;20060;-43
2021/05/08 05:38:13;;;;;;;2.42;1.77;;;22.50;63.40;;;;;;5072093;28;20021;-43
2021/05/08 05:40:39;;;;;;;1.63;1.45;;;22.80;62.80;;;;;;5071048;28;20020;-43
2021/05/08 05:43:04;;;;;;;4.53;1.48;;;23.30;61.70;;;;;;5073808;28;20024;-46
2021/05/08 05:45:30;;;;;;;3.00;1.50;;;23.70;60.80;;;;;;5075974;28;20033;-41
2021/05/08 05:47:57;;;;;;;2.25;1.30;;;23.90;60.00;;;;;;5076127;28;20031;-43
2021/05/08 05:50:24;;;;;;;2.10;1.48;;;24.10;59.30;;;;;;5075960;28;20140;-44
2021/05/08 05:52:50;;;;;;;2.28;1.70;;;24.20;58.90;;;;;;5095724;28;20442;-42
2021/05/08 05:55:15;;;;;;;2.83;1.35;;;24.50;58.20;;;;;;5095352;28;20040;-46
2021/05/08 05:57:41;;;;;;;1.40;1.20;;;24.60;57.50;;;;;;5096059;28;20028;-45
2021/05/08 06:00:07;;;;;;;2.58;1.60;;;24.90;57.00;;;;;;5096263;28;20393;-43
2021/05/08 06:02:35;;;;;;;4.53;1.30;;;24.90;56.60;;;;;;5095711;28;20028;-43
2021/05/08 06:05:01;;;;;;;2.22;1.40;;;25.10;55.80;;;;;;5096068;28;20077;-41
2021/05/08 06:07:26;;;;;;;3.58;1.60;;;25.50;54.80;;;;;;5095749;28;20024;-40
2021/05/08 06:09:52;;;;;;;5.05;1.70;;;25.80;53.90;;;;;;5095071;28;20522;-43
2021/05/08 06:12:17;;;;;;;2.33;1.48;;;25.90;52.90;;;;;;5095805;28;20030;-43
2021/05/08 06:14:43;;;;;;;2.78;1.40;;;25.90;52.20;;;;;;5095727;28;20520;-42
2021/05/08 06:17:08;;;;;;;3.20;1.60;;;26.10;52.00;;;;;;5095571;28;20044;-44
2021/05/08 06:19:34;;;;;;;4.38;1.60;;;26.30;51.60;;;;;;5095636;28;20348;-41
2021/05/08 06:21:59;;;;;;;2.80;1.50;;;26.50;50.70;;;;;;5095586;28;20024;-42
2021/05/08 06:24:25;;;;;;;2.28;1.48;;;26.60;50.30;;;;;;5094598;28;20787;-46
2021/05/08 06:26:50;;;;;;;3.50;1.63;;;26.80;49.60;;;;;;5095590;28;20023;-45
2021/05/08 06:29:16;;;;;;;4.07;1.42;;;27.10;49.20;;;;;;5095666;28;20043;-43
2021/05/08 06:31:41;;;;;;;3.45;1.60;;;27.20;48.60;;;;;;5094336;28;20470;-40
2021/05/08 06:34:07;;;;;;;2.83;1.27;;;27.40;47.90;;;;;;5074987;28;20036;-40
2021/05/08 06:36:32;;;;;;;3.28;1.60;;;27.70;47.30;;;;;;5075031;28;20048;-42
2021/05/08 06:38:58;;;;;;;2.90;1.00;;;28.10;46.70;;;;;;5075178;28;20056;-43
2021/05/08 06:41:23;;;;;;;3.38;1.48;;;27.40;46.50;;;;;;5074135;28;20387;-44
2021/05/08 06:43:49;;;;;;;2.30;1.42;;;26.10;47.10;;;;;;5075119;28;20059;-40
2021/05/08 06:46:15;;;;;;;2.72;1.77;;;25.10;47.80;;;;;;5074921;28;20430;-40
2021/05/08 06:48:40;;;;;;;2.17;1.58;;;24.90;48.20;;;;;;5074747;28;20028;-41
2021/05/08 06:51:08;;;;;;;4.70;1.73;;;25.00;47.70;;;;;;5080341;28;20099;-43
2021/05/08 06:53:35;;;;;;;4.40;1.30;;;25.30;47.50;;;;;;5094005;28;20054;-41
2021/05/08 06:56:01;;;;;;;5.13;1.70;;;25.70;46.70;;;;;;5094088;28;20020;-42
2021/05/08 06:58:26;;;;;;;4.78;1.48;;;25.80;46.50;;;;;;5094974;28;20054;-43
2021/05/08 07:00:52;;;;;;;4.93;1.50;;;26.60;45.70;;;;;;5095052;28;20051;-42
2021/05/08 07:03:17;;;;;;;2.47;1.52;;;27.40;44.70;;;;;;5094756;28;20028;-44
2021/05/08 07:05:43;;;;;;;2.05;1.20;;;28.00;44.20;;;;;;5094830;28;20035;-43
2021/05/08 07:08:10;;;;;;;2.80;1.50;;;27.70;43.90;;;;;;5094657;28;20032;-41
2021/05/08 07:10:46;;;;;;;4.60;1.50;;;27.80;43.60;;;;;;5093672;28;20020;-41
2021/05/08 07:13:13;;;;;;;3.78;1.65;;;26.50;42.50;;;;;;5094581;28;20099;-41
2021/05/08 07:15:39;;;;;;;3.42;1.45;;;26.50;43.60;;;;;;5072094;28;20021;-41
2021/05/08 07:18:06;;;;;;;2.95;1.50;;;27.20;42.20;;;;;;5092168;28;20088;-47
2021/05/08 07:20:33;;;;;;;2.38;1.15;;;27.80;41.40;;;;;;5094301;28;20028;-40
2021/05/08 07:22:59;;;;;;;6.30;1.27;;;27.20;40.70;;;;;;5094331;28;20028;-49
2021/05/08 07:25:25;;;;;;;3.20;1.17;;;26.70;41.20;;;;;;5093293;28;20176;-45
2021/05/08 07:27:50;;;;;;;6.40;1.33;;;26.00;41.20;;;;;;5094128;28;20081;-43
2021/05/08 07:30:16;;;;;;;7.40;1.38;;;25.00;40.70;;;;;;5093920;28;20436;-42
2021/05/08 07:32:41;;;;;;;4.07;1.15;;;25.00;41.20;;;;;;5075709;28;20088;-41
2021/05/08 07:35:08;;;;;;;3.28;1.30;;;25.50;40.80;;;;;;5073930;28;20326;-45
2021/05/08 07:37:34;;;;;;;4.22;1.35;;;26.10;40.60;;;;;;5073775;28;20388;-39
2021/05/08 07:40:00;;;;;;;3.90;0.90;;;26.90;39.30;;;;;;5072617;28;20031;-42
2021/05/08 07:42:26;;;;;;;3.67;1.42;;;27.50;38.90;;;;;;5073717;28;20013;-41
2021/05/08 07:44:51;;;;;;;4.13;1.40;;;28.30;38.60;;;;;;5073493;28;20036;-40
2021/05/08 07:47:17;;;;;;;3.35;1.27;;;28.80;38.20;;;;;;5073532;28;20379;-40
2021/05/08 07:49:42;;;;;;;2.35;1.27;;;29.30;37.70;;;;;;5073352;28;20024;-41
2021/05/08 07:52:08;;;;;;;2.13;1.23;;;29.80;37.40;;;;;;5087854;28;20107;-39
2021/05/08 07:54:33;;;;;;;3.78;1.35;;;29.10;37.40;;;;;;5092741;28;20502;-41
2021/05/08 07:56:59;;;;;;;3.33;1.42;;;28.00;37.90;;;;;;5093601;28;20032;-40
2021/05/08 07:59:25;;;;;;;4.72;1.35;;;28.10;37.40;;;;;;5093930;28;20035;-40
2021/05/08 08:01:50;;;;;;;3.42;1.10;;;28.50;37.40;;;;;;5093459;28;20198;-41
2021/05/08 08:04:16;;;;;;;1.52;0.90;;;28.90;37.00;;;;;;5093784;28;20069;-40
2021/05/08 08:06:41;;;;;;;3.60;1.23;;;29.50;36.70;;;;;;5092465;28;20140;-45
2021/05/08 08:09:07;;;;;;;2.85;1.33;;;30.00;35.80;;;;;;5092914;28;20379;-42
2021/05/08 08:11:32;;;;;;;4.80;1.38;;;29.00;36.00;;;;;;5093388;28;20046;-40
2021/05/08 08:13:58;;;;;;;2.42;1.10;;;28.90;36.20;;;;;;5093501;28;20028;-40
2021/05/08 08:16:24;;;;;;;2.17;1.23;;;29.10;35.80;;;;;;5093225;28;20047;-41
2021/05/08 08:18:49;;;;;;;2.70;0.90;;;27.30;35.90;;;;;;5083704;28;20025;-40
2021/05/08 08:21:15;;;;;;;2.33;1.08;;;25.40;37.00;;;;;;5072887;28;20062;-41
2021/05/08 08:23:41;;;;;;;1.15;1.00;;;24.80;37.60;;;;;;5072773;28;20035;-39
2021/05/08 08:26:06;;;;;;;1.58;1.20;;;23.50;38.30;;;;;;5071899;28;20321;-40
2021/05/08 08:28:32;;;;;;;2.85;1.20;;;23.90;38.60;;;;;;5072906;28;20032;-40
2021/05/08 08:30:57;;;;;;;1.90;1.00;;;24.70;37.80;;;;;;5072508;28;20043;-40
2021/05/08 08:33:23;;;;;;;1.95;1.00;;;26.10;37.10;;;;;;5087805;28;20111;-41
2021/05/08 08:35:48;;;;;;;3.80;1.20;;;26.20;36.30;;;;;;5092908;28;20028;-41
2021/05/08 08:38:15;;;;;;;3.38;1.33;;;26.80;36.00;;;;;;5093007;28;20424;-40
2021/05/08 08:40:40;;;;;;;2.67;1.30;;;27.60;35.60;;;;;;5091708;28;20032;-42
2021/05/08 08:43:06;;;;;;;1.90;0.88;;;28.30;35.00;;;;;;5092848;28;20081;-41
2021/05/08 08:45:32;;;;;;;2.75;1.25;;;28.50;34.90;;;;;;5092555;28;20024;-41
2021/05/08 08:47:58;;;;;;;4.45;1.45;;;26.90;34.50;;;;;;5092662;28;20513;-42
2021/05/08 08:50:24;;;;;;;2.03;1.00;;;26.60;35.00;;;;;;5092651;28;20024;-42
2021/05/08 08:52:50;;;;;;;3.25;1.60;;;26.40;35.30;;;;;;5072299;28;20154;-40
2021/05/08 08:55:15;;;;;;;2.35;1.10;;;26.60;34.70;;;;;;5071913;28;20466;-40
2021/05/08 08:57:45;;;;;;;0.98;0.88;;;27.40;34.50;;;;;;5086131;28;20039;-40
2021/05/08 09:00:14;;;;;;;1.70;1.00;;;27.50;34.00;;;;;;5092321;28;20471;-42
2021/05/08 09:02:42;;;;;;;3.50;1.45;;;27.40;34.00;;;;;;5087091;28;20016;-41
2021/05/08 09:05:10;;;;;;;3.10;1.60;;;28.10;33.70;;;;;;5083851;28;20024;-40
2021/05/08 09:07:38;;;;;;;3.28;1.08;;;27.70;33.50;;;;;;5088955;28;20103;-41
2021/05/08 09:10:05;;;;;;;2.10;1.20;;;26.50;33.80;;;;;;5110373;28;20024;-40
2021/05/08 09:12:44;;;;;;;3.05;1.50;;;25.00;34.40;;;;;;5077112;28;20502;-40
2021/05/08 09:15:10;;;;;;;2.05;1.08;;;24.00;34.90;;;;;;5090925;28;20095;-40
2021/05/08 09:17:43;;;;;;;2.10;1.20;;;24.80;35.60;;;;;;5097953;28;20115;-40
2021/05/08 09:20:11;;;;;;;3.33;1.25;;;25.80;34.60;;;;;;5111156;28;20477;-40
2021/05/08 09:22:38;;;;;;;2.92;1.20;;;26.60;34.30;;;;;;5110814;28;20020;-40
2021/05/08 09:25:06;;;;;;;1.55;1.00;;;25.70;34.30;;;;;;5109817;28;20027;-41
2021/05/08 09:27:50;;;;;;;2.35;1.27;;;24.60;34.90;;;;;;5110971;28;20337;-40
2021/05/08 09:30:42;;;;;;;1.90;1.05;;;23.40;35.90;;;;;;5101596;28;20016;-39
2021/05/08 09:33:08;;;;;;;2.63;1.10;;;22.40;36.70;;;;;;5090982;28;20036;-40
2021/05/08 09:35:35;;;;;;;1.02;0.85;;;22.30;37.30;;;;;;5110833;28;20156;-41
2021/05/08 09:38:11;;;;;;;1.52;1.35;;;21.60;37.50;;;;;;5110656;28;20511;-40
2021/05/08 09:40:38;;;;;;;2.03;1.20;;;21.30;37.80;;;;;;5110033;28;20040;-39
2021/05/08 09:43:12;;;;;;;4.47;1.42;;;21.30;37.80;;;;;;5110622;28;20350;-47
2021/05/08 09:45:40;;;;;;;1.65;1.05;;;22.10;38.00;;;;;;5110943;28;20027;-43
2021/05/08 09:48:22;;;;;;;3.55;1.15;;;22.70;36.60;;;;;;5110495;28;20126;-43
2021/05/08 09:50:48;;;;;;;1.10;1.00;;;22.20;36.50;;;;;;5107817;28;20383;-43
2021/05/08 09:53:31;;;;;;;2.08;0.90;;;21.60;37.10;;;;;;5076812;28;20173;-44
2021/05/08 09:55:58;;;;;;;1.33;0.90;;;20.90;37.90;;;;;;5089267;28;20028;-42
2021/05/08 09:58:26;;;;;;;2.58;1.50;;;20.50;38.90;;;;;;5090101;28;20025;-42
2021/05/08 10:00:53;;;;;;;2.35;1.10;;;20.10;38.90;;;;;;5090302;28;20017;-43
2021/05/08 10:03:20;;;;;;;3.50;1.05;;;19.70;39.00;;;;;;5090235;28;20094;-42
2021/05/08 10:06:09;;;;;;;1.95;1.00;;;19.50;39.10;;;;;;5090424;28;20036;-39
2021/05/08 10:08:34;;;;;;;1.90;1.00;;;19.50;39.30;;;;;;5090111;28;20047;-41
2021/05/08 10:11:01;;;;;;;1.90;0.70;;;19.30;39.20;;;;;;5089338;28;20483;-41
2021/05/08 10:13:28;;;;;;;1.88;1.08;;;19.00;39.30;;;;;;5089989;28;20055;-40
2021/05/08 10:15:57;;;;;;;1.63;1.00;;;18.60;39.70;;;;;;5089896;28;20402;-40
2021/05/08 10:18:24;;;;;;;2.08;1.25;;;18.30;40.10;;;;;;5090555;28;20426;-44
2021/05/08 10:20:50;;;;;;;2.30;1.10;;;18.20;40.50;;;;;;5090250;28;20379;-41
2021/05/08 10:23:16;;;;;;;2.85;1.10;;;18.00;40.70;;;;;;5090119;28;20028;-39
2021/05/08 10:25:43;;;;;;;3.63;1.20;;;17.90;40.90;;;;;;5089379;28;20035;-39
2021/05/08 10:28:09;;;;;;;2.28;1.20;;;17.90;40.90;;;;;;5089933;28;20024;-40
2021/05/08 10:30:40;;;;;;;3.35;1.25;;;17.90;40.80;;;;;;5093583;28;20020;-39
2021/05/08 10:33:21;;;;;;;2.13;0.85;;;17.90;41.00;;;;;;5093422;28;20059;-43
2021/05/08 10:35:52;;;;;;;1.67;1.05;;;18.00;41.00;;;;;;5093829;28;20028;-39
2021/05/08 10:38:23;;;;;;;3.33;1.00;;;18.20;41.20;;;;;;5102393;28;20019;-40
2021/05/08 10:40:49;;;;;;;3.85;1.33;;;18.40;41.50;;;;;;5113056;28;20113;-39
2021/05/08 10:43:46;;;;;;;1.88;0.93;;;18.10;41.50;;;;;;5113601;28;20477;-41
2021/05/08 10:46:15;;;;;;;1.70;1.10;;;18.00;42.30;;;;;;5102220;28;20025;-39
2021/05/08 10:49:06;;;;;;;1.17;0.73;;;17.90;41.90;;;;;;5087039;28;20036;-39
2021/05/08 10:51:57;;;;;;;1.92;1.50;;;18.00;42.40;;;;;;5093344;28;20024;-39
2021/05/08 10:54:42;;;;;;;1.33;1.10;;;18.10;42.20;;;;;;5092163;28;20372;-40
2021/05/08 10:57:20;;;;;;;3.20;1.20;;;18.00;42.80;;;;;;5092840;28;20017;-39
2021/05/08 11:00:04;;;;;;;1.65;1.10;;;17.90;42.30;;;;;;5091818;28;20020;-39
2021/05/08 11:02:44;;;;;;;2.83;1.40;;;17.90;42.70;;;;;;5079894;28;20035;-41
2021/05/08 11:05:19;;;;;;;2.35;1.38;;;17.90;42.80;;;;;;5092979;28;20024;-39
2021/05/08 11:07:44;;;;;;;2.33;1.13;;;17.90;42.20;;;;;;5093012;28;20063;-39
2021/05/08 11:10:32;;;;;;;3.70;1.10;;;17.80;42.30;;;;;;5080750;28;20055;-39
2021/05/08 11:13:44;;;;;;;2.75;1.45;;;17.50;42.80;;;;;;5107839;28;20233;-39
2021/05/08 11:16:12;;;;;;;2.30;1.10;;;17.40;42.70;;;;;;5086645;28;20495;-43
2021/05/08 11:18:46;;;;;;;0.95;0.88;;;17.50;42.80;;;;;;5113084;28;20024;-42
2021/05/08 11:21:11;;;;;;;1.98;1.20;;;17.60;43.00;;;;;;5104665;28;20016;-42
2021/05/08 11:23:41;;;;;;;2.70;1.50;;;17.80;42.50;;;;;;5092967;28;20111;-41
2021/05/08 11:28:55;;;;;;;3.03;1.77;;;17.80;42.90;;;;;;5112960;28;20160;-40
2021/05/08 11:31:35;;;;;;;2.58;1.60;;;17.80;42.70;;;;;;5093300;28;20038;-40
2021/05/08 11:34:11;;;;;;;2.60;1.15;;;17.70;42.80;;;;;;5077965;28;20028;-39
2021/05/08 11:36:51;;;;;;;2.97;1.10;;;17.60;42.80;;;;;;5092316;28;20209;-42
2021/05/08 11:39:40;;;;;;;2.03;1.27;;;17.50;43.00;;;;;;5091104;28;20226;-41
2021/05/08 11:42:20;;;;;;;1.90;1.17;;;17.40;43.30;;;;;;5092265;28;20069;-41
2021/05/08 11:45:10;;;;;;;2.88;1.45;;;17.40;43.30;;;;;;5092050;28;20031;-42
2021/05/08 11:47:36;;;;;;;1.58;1.13;;;17.40;43.40;;;;;;5092224;28;20032;-43
2021/05/08 11:50:07;;;;;;;2.08;1.23;;;17.30;43.10;;;;;;5092042;28;20023;-44
2021/05/08 11:52:38;;;;;;;3.88;1.50;;;17.20;43.20;;;;;;5100913;28;20077;-43
2021/05/08 11:55:27;;;;;;;5.28;1.55;;;17.10;43.60;;;;;;5111260;28;20027;-45
2021/05/08 11:57:57;;;;;;;3.20;1.42;;;16.90;43.70;;;;;;5101503;28;20085;-42
2021/05/08 12:00:31;;;;;;;1.52;1.00;;;16.80;43.70;;;;;;5091775;28;20506;-43
2021/05/08 12:03:08;;;;;;;2.05;1.20;;;16.80;43.90;;;;;;5091824;28;20409;-43
2021/05/08 12:05:41;;;;;;;3.70;1.10;;;16.80;44.20;;;;;;5091784;28;20024;-42
2021/05/08 12:08:08;;;;;;;2.53;0.90;;;16.80;44.10;;;;;;5091865;28;20020;-41
2021/05/08 12:10:38;;;;;;;1.60;1.17;;;16.90;44.20;;;;;;5090864;28;20032;-42
2021/05/08 12:13:04;;;;;;;3.13;1.55;;;17.00;44.30;;;;;;5091649;28;20028;-43
2021/05/08 12:15:31;;;;;;;3.15;1.40;;;17.10;44.00;;;;;;5091664;28;20020;-42
2021/05/08 12:18:01;;;;;;;3.53;1.15;;;17.20;43.90;;;;;;5091559;28;20423;-44
2021/05/08 12:20:29;;;;;;;2.42;1.23;;;17.30;43.70;;;;;;5091501;28;20060;-41
2021/05/08 12:23:00;;;;;;;1.92;1.23;;;17.30;43.70;;;;;;5185474;22;20056;-42
2021/05/08 12:25:26;;;;;;;3.17;1.00;;;17.30;43.60;;;;;;5082293;28;20031;-42
2021/05/08 12:28:17;;;;;;;1.10;0.90;;;17.20;43.20;;;;;;5091331;28;20031;-42
2021/05/08 12:30:45;;;;;;;1.20;0.98;;;17.20;43.30;;;;;;5092634;28;20028;-43
2021/05/08 12:33:22;;;;;;;5.85;3.92;;;17.20;43.20;;;;;;5111714;28;20028;-41
2021/05/08 12:35:48;;;;;;;3.80;2.58;;;17.10;42.80;;;;;;5111570;28;20352;-41
2021/05/08 12:38:17;;;;;;;8.48;4.45;;;17.00;43.60;;;;;;5096344;22;20057;-43
2021/05/08 12:40:43;;;;;;;3.80;2.80;;;16.90;43.60;;;;;;5070038;28;20061;-42
2021/05/08 12:43:10;;;;;;;2.65;2.00;;;16.80;43.90;;;;;;5070880;28;20027;-40
2021/05/08 12:46:02;;;;;;;3.53;1.55;;;16.60;43.90;;;;;;5070814;28;20024;-39
2021/05/08 12:48:32;;;;;;;1.73;1.35;;;16.40;44.10;;;;;;5070857;28;20024;-46
2021/05/08 12:50:58;;;;;;;1.58;1.33;;;16.30;44.20;;;;;;5075142;28;20304;-40
2021/05/08 12:53:24;;;;;;;4.65;2.40;;;16.30;44.10;;;;;;5072018;28;20093;-43
2021/05/08 12:56:05;;;;;;;2.85;1.55;;;16.20;44.80;;;;;;5070046;28;20417;-45